createdAt,value
2018-04-29T00:00:32.679Z,0.00
2018-04-29T00:01:33.230Z,0.00
2018-04-29T00:02:33.542Z,0.00
2018-04-29T00:03:33.980Z,0.00
2018-04-29T00:04:34.439Z,0.00
2018-04-29T00:05:34.857Z,0.00
2018-04-29T00:06:35.290Z,0.00
2018-04-29T00:07:35.724Z,0.00
2018-04-29T00:08:36.160Z,0.00
2018-04-29T00:09:36.591Z,0.00
2018-04-29T00:10:37.034Z,0.00
2018-04-29T00:11:37.467Z,0.00
2018-04-29T00:12:37.901Z,0.00
2018-04-29T00:13:38.334Z,0.00
2018-04-29T00:14:38.774Z,0.00
2018-04-29T00:15:39.212Z,0.00
2018-04-29T00:16:39.670Z,0.00
2018-04-29T00:17:40.079Z,0.00
2018-04-29T00:18:40.515Z,0.00
2018-04-29T00:19:40.947Z,0.00
2018-04-29T00:20:41.382Z,0.00
2018-04-29T00:21:41.818Z,0.00
2018-04-29T00:22:42.252Z,0.00
2018-04-29T00:23:42.690Z,0.00
2018-04-29T00:24:43.122Z,0.00
2018-04-29T00:25:43.558Z,0.00
2018-04-29T00:26:43.994Z,0.00
2018-04-29T00:27:44.429Z,0.00
2018-04-29T00:28:44.866Z,0.00
2018-04-29T00:29:45.301Z,0.00
2018-04-29T00:30:45.735Z,0.00
2018-04-29T00:31:46.174Z,0.00
2018-04-29T00:32:46.652Z,0.00
2018-04-29T00:33:47.040Z,0.00
2018-04-29T00:34:47.477Z,0.00
2018-04-29T00:35:47.967Z,0.00
2018-04-29T00:36:48.358Z,0.00
2018-04-29T00:37:48.847Z,0.00
2018-04-29T00:38:49.221Z,0.00
2018-04-29T00:39:49.654Z,0.00
2018-04-29T00:40:50.100Z,0.00
2018-04-29T00:41:50.526Z,0.00
2018-04-29T00:42:50.959Z,0.00
2018-04-29T00:43:51.393Z,0.00
2018-04-29T00:44:51.829Z,0.00
2018-04-29T00:45:52.265Z,0.00
2018-04-29T00:46:52.700Z,0.00
2018-04-29T00:47:53.134Z,0.00
2018-04-29T00:48:53.584Z,0.00
2018-04-29T00:49:54.006Z,0.00
2018-04-29T00:50:54.534Z,0.00
2018-04-29T00:51:54.878Z,0.00
2018-04-29T00:52:55.314Z,0.00
2018-04-29T00:53:55.748Z,0.00
2018-04-29T00:54:56.182Z,0.00
2018-04-29T00:55:56.618Z,0.00
2018-04-29T00:56:57.053Z,0.00
2018-04-29T00:57:57.486Z,0.00
2018-04-29T00:58:57.939Z,0.00
2018-04-29T00:59:58.358Z,0.00
2018-04-29T01:00:58.794Z,0.00
2018-04-29T01:01:59.233Z,0.00
2018-04-29T01:02:59.683Z,0.00
2018-04-29T01:04:00.176Z,0.00
2018-04-29T01:05:00.536Z,0.00
2018-04-29T01:06:01.038Z,0.00
2018-04-29T01:07:02.955Z,0.00
2018-04-29T01:08:01.841Z,0.00
2018-04-29T01:09:02.273Z,0.00
2018-04-29T01:10:02.710Z,0.00
2018-04-29T01:11:03.145Z,0.00
2018-04-29T01:12:05.457Z,0.00
2018-04-29T01:13:04.015Z,0.00
2018-04-29T01:14:04.447Z,0.00
2018-04-29T01:15:04.944Z,0.00
2018-04-29T01:16:05.327Z,0.00
2018-04-29T01:17:05.752Z,0.00
2018-04-29T01:18:06.188Z,0.00
2018-04-29T01:19:06.621Z,0.00
2018-04-29T01:20:07.059Z,0.00
2018-04-29T01:21:07.496Z,0.00
2018-04-29T01:22:07.925Z,0.00
2018-04-29T01:23:08.389Z,0.00
2018-04-29T01:24:08.798Z,0.00
2018-04-29T01:25:09.233Z,0.00
2018-04-29T01:26:09.663Z,0.00
2018-04-29T01:27:10.099Z,0.00
2018-04-29T01:28:10.533Z,0.00
2018-04-29T01:29:10.964Z,0.00
2018-04-29T01:30:11.399Z,0.00
2018-04-29T01:31:11.834Z,0.00
2018-04-29T01:32:12.271Z,0.00
2018-04-29T01:33:12.700Z,0.00
2018-04-29T01:34:13.147Z,0.00
2018-04-29T01:35:13.572Z,0.00
2018-04-29T01:36:14.072Z,0.00
2018-04-29T01:37:14.441Z,0.00
2018-04-29T01:38:14.874Z,0.00
2018-04-29T01:39:15.311Z,0.00
2018-04-29T01:40:15.743Z,0.00
2018-04-29T01:41:16.173Z,0.00
2018-04-29T01:42:16.606Z,0.00
2018-04-29T01:43:17.040Z,0.00
2018-04-29T01:44:17.476Z,0.00
2018-04-29T01:45:17.910Z,0.00
2018-04-29T01:46:18.346Z,0.00
2018-04-29T01:47:18.782Z,0.00
2018-04-29T01:48:19.209Z,0.00
2018-04-29T01:49:19.640Z,0.00
2018-04-29T01:50:20.083Z,0.00
2018-04-29T01:51:20.513Z,0.00
2018-04-29T01:52:20.992Z,0.00
2018-04-29T01:53:21.387Z,0.00
2018-04-29T01:54:21.810Z,0.00
2018-04-29T01:55:22.255Z,0.00
2018-04-29T01:56:22.688Z,0.00
2018-04-29T01:57:23.118Z,0.00
2018-04-29T01:58:23.552Z,0.00
2018-04-29T01:59:23.983Z,0.00
2018-04-29T02:00:24.420Z,0.00
2018-04-29T02:01:24.861Z,0.00
2018-04-29T02:02:25.283Z,0.00
2018-04-29T02:03:25.732Z,0.00
2018-04-29T02:04:26.154Z,0.00
2018-04-29T02:05:26.584Z,0.00
2018-04-29T02:06:27.018Z,0.00
2018-04-29T02:07:27.459Z,0.00
2018-04-29T02:08:27.890Z,0.00
2018-04-29T02:09:28.318Z,0.00
2018-04-29T02:10:28.890Z,0.00
2018-04-29T02:11:29.192Z,0.00
2018-04-29T02:12:29.625Z,0.00
2018-04-29T02:13:30.062Z,0.00
2018-04-29T02:14:30.489Z,0.00
2018-04-29T02:15:30.920Z,0.00
2018-04-29T02:16:31.359Z,0.00
2018-04-29T02:17:31.785Z,0.00
2018-04-29T02:18:32.220Z,0.00
2018-04-29T02:19:32.663Z,0.00
2018-04-29T02:20:33.092Z,0.00
2018-04-29T02:21:33.523Z,0.00
2018-04-29T02:22:33.959Z,0.00
2018-04-29T02:23:34.460Z,0.00
2018-04-29T02:24:34.825Z,0.00
2018-04-29T02:25:35.261Z,0.00
2018-04-29T02:26:35.691Z,0.00
2018-04-29T02:27:36.126Z,0.00
2018-04-29T02:28:36.570Z,0.00
2018-04-29T02:29:36.992Z,0.00
2018-04-29T02:30:37.426Z,0.00
2018-04-29T02:31:37.862Z,0.00
2018-04-29T02:32:38.295Z,0.00
2018-04-29T02:33:38.726Z,0.00
2018-04-29T02:34:39.170Z,0.00
2018-04-29T02:35:39.592Z,0.00
2018-04-29T02:36:40.034Z,0.00
2018-04-29T02:37:40.464Z,0.00
2018-04-29T02:38:40.897Z,0.00
2018-04-29T02:39:41.336Z,0.00
2018-04-29T02:40:43.495Z,0.00
2018-04-29T02:41:42.194Z,0.00
2018-04-29T02:42:42.631Z,0.00
2018-04-29T02:43:43.065Z,0.00
2018-04-29T02:44:43.499Z,0.00
2018-04-29T02:45:43.930Z,0.00
2018-04-29T02:46:44.380Z,0.00
2018-04-29T02:47:44.815Z,0.00
2018-04-29T02:48:45.231Z,0.00
2018-04-29T02:49:45.673Z,0.00
2018-04-29T02:50:46.105Z,0.00
2018-04-29T02:51:46.550Z,0.00
2018-04-29T02:52:46.991Z,0.00
2018-04-29T02:53:47.406Z,0.00
2018-04-29T02:54:47.835Z,0.00
2018-04-29T02:55:48.271Z,0.00
2018-04-29T02:56:48.707Z,0.00
2018-04-29T02:57:49.136Z,0.00
2018-04-29T02:58:49.568Z,0.00
2018-04-29T02:59:50.001Z,0.00
2018-04-29T03:00:50.439Z,0.00
2018-04-29T03:01:50.875Z,0.00
2018-04-29T03:02:51.313Z,0.00
2018-04-29T03:03:51.736Z,0.00
2018-04-29T03:04:52.169Z,0.00
2018-04-29T03:05:52.606Z,0.00
2018-04-29T03:06:53.038Z,0.00
2018-04-29T03:07:53.476Z,0.00
2018-04-29T03:08:53.903Z,0.00
2018-04-29T03:09:54.338Z,0.00
2018-04-29T03:10:54.772Z,0.00
2018-04-29T03:11:55.205Z,0.00
2018-04-29T03:12:55.639Z,0.00
2018-04-29T03:13:56.071Z,0.00
2018-04-29T03:14:56.506Z,0.00
2018-04-29T03:15:56.938Z,0.00
2018-04-29T03:16:57.373Z,0.00
2018-04-29T03:17:57.810Z,0.00
2018-04-29T03:18:58.245Z,0.00
2018-04-29T03:19:58.683Z,0.00
2018-04-29T03:20:59.109Z,0.00
2018-04-29T03:21:59.539Z,0.00
2018-04-29T03:22:59.973Z,0.00
2018-04-29T03:24:00.406Z,0.00
2018-04-29T03:25:00.849Z,0.00
2018-04-29T03:26:01.277Z,0.00
2018-04-29T03:27:01.741Z,0.00
2018-04-29T03:28:02.169Z,0.00
2018-04-29T03:29:02.585Z,0.00
2018-04-29T03:30:03.013Z,0.00
2018-04-29T03:31:03.443Z,0.00
2018-04-29T03:32:03.874Z,0.00
2018-04-29T03:33:04.308Z,0.00
2018-04-29T03:34:04.745Z,0.00
2018-04-29T03:35:05.181Z,0.00
2018-04-29T03:36:05.605Z,0.00
2018-04-29T03:37:06.039Z,0.00
2018-04-29T03:38:06.470Z,5.63
2018-04-29T03:39:06.906Z,5.63
2018-04-29T03:40:07.337Z,5.63
2018-04-29T03:41:07.780Z,5.63
2018-04-29T03:42:08.205Z,5.63
2018-04-29T03:43:08.643Z,5.63
2018-04-29T03:44:09.064Z,5.63
2018-04-29T03:45:09.500Z,5.63
2018-04-29T03:46:09.931Z,5.63
2018-04-29T03:47:10.364Z,5.63
2018-04-29T03:48:10.797Z,11.25
2018-04-29T03:49:11.228Z,11.25
2018-04-29T03:50:11.661Z,11.25
2018-04-29T03:51:12.095Z,11.25
2018-04-29T03:52:12.532Z,11.25
2018-04-29T03:53:12.966Z,11.25
2018-04-29T03:54:13.385Z,11.25
2018-04-29T03:55:13.821Z,16.88
2018-04-29T03:56:14.262Z,16.88
2018-04-29T03:57:14.689Z,16.88
2018-04-29T03:58:15.119Z,16.88
2018-04-29T03:59:15.554Z,16.88
2018-04-29T04:00:15.984Z,16.88
2018-04-29T04:01:16.417Z,22.50
2018-04-29T04:02:16.865Z,22.50
2018-04-29T04:03:17.281Z,22.50
2018-04-29T04:04:17.717Z,22.50
2018-04-29T04:05:18.148Z,28.13
2018-04-29T04:06:18.579Z,28.13
2018-04-29T04:07:19.010Z,28.13
2018-04-29T04:08:19.448Z,33.75
2018-04-29T04:09:19.879Z,33.75
2018-04-29T04:10:20.334Z,39.38
2018-04-29T04:11:20.741Z,39.38
2018-04-29T04:12:21.175Z,45.00
2018-04-29T04:13:21.599Z,45.00
2018-04-29T04:14:22.037Z,50.63
2018-04-29T04:15:22.491Z,50.63
2018-04-29T04:16:22.926Z,50.63
2018-04-29T04:17:23.331Z,56.25
2018-04-29T04:18:23.771Z,56.25
2018-04-29T04:19:24.198Z,56.25
2018-04-29T04:20:24.633Z,61.88
2018-04-29T04:21:25.061Z,61.88
2018-04-29T04:22:25.509Z,61.88
2018-04-29T04:23:25.929Z,61.88
2018-04-29T04:24:26.365Z,61.88
2018-04-29T04:25:26.793Z,61.88
2018-04-29T04:26:27.231Z,61.88
2018-04-29T04:27:27.662Z,61.88
2018-04-29T04:28:28.092Z,67.50
2018-04-29T04:29:28.532Z,67.50
2018-04-29T04:30:28.991Z,67.50
2018-04-29T04:31:29.395Z,67.50
2018-04-29T04:32:29.831Z,73.13
2018-04-29T04:33:30.260Z,73.13
2018-04-29T04:34:30.695Z,73.13
2018-04-29T04:35:31.125Z,73.13
2018-04-29T04:36:31.560Z,73.13
2018-04-29T04:37:31.992Z,73.13
2018-04-29T04:38:32.430Z,73.13
2018-04-29T04:39:32.863Z,78.75
2018-04-29T04:40:33.289Z,78.75
2018-04-29T04:41:33.730Z,78.75
2018-04-29T04:42:34.194Z,78.75
2018-04-29T04:43:34.614Z,78.75
2018-04-29T04:44:35.035Z,84.38
2018-04-29T04:45:35.461Z,84.38
2018-04-29T04:46:35.896Z,84.38
2018-04-29T04:47:36.327Z,84.38
2018-04-29T04:48:36.765Z,84.38
2018-04-29T04:49:37.196Z,90.00
2018-04-29T04:50:37.732Z,90.00
2018-04-29T04:51:38.063Z,90.00
2018-04-29T04:52:38.504Z,90.00
2018-04-29T04:53:38.934Z,90.00
2018-04-29T04:54:39.361Z,90.00
2018-04-29T04:55:39.798Z,90.00
2018-04-29T04:56:40.230Z,84.38
2018-04-29T04:57:40.673Z,84.38
2018-04-29T04:58:41.106Z,84.38
2018-04-29T04:59:41.537Z,84.38
2018-04-29T05:00:41.967Z,84.38
2018-04-29T05:01:42.399Z,84.38
2018-04-29T05:02:42.837Z,84.38
2018-04-29T05:03:43.281Z,90.00
2018-04-29T05:04:43.701Z,90.00
2018-04-29T05:05:44.137Z,95.63
2018-04-29T05:06:44.576Z,95.63
2018-04-29T05:07:45.008Z,95.63
2018-04-29T05:08:45.443Z,95.63
2018-04-29T05:09:45.878Z,101.25
2018-04-29T05:10:46.306Z,101.25
2018-04-29T05:11:46.739Z,106.88
2018-04-29T05:12:47.177Z,112.50
2018-04-29T05:13:47.677Z,118.13
2018-04-29T05:14:48.042Z,129.38
2018-04-29T05:15:48.479Z,135.00
2018-04-29T05:16:48.907Z,140.63
2018-04-29T05:17:49.345Z,140.63
2018-04-29T05:18:49.776Z,140.63
2018-04-29T05:19:50.214Z,146.25
2018-04-29T05:20:50.650Z,146.25
2018-04-29T05:21:51.080Z,151.88
2018-04-29T05:22:51.600Z,151.88
2018-04-29T05:23:51.943Z,151.88
2018-04-29T05:24:52.381Z,151.88
2018-04-29T05:25:52.819Z,151.88
2018-04-29T05:26:53.251Z,157.50
2018-04-29T05:27:53.685Z,157.50
2018-04-29T05:28:54.119Z,151.88
2018-04-29T05:29:54.547Z,151.88
2018-04-29T05:30:54.981Z,157.50
2018-04-29T05:31:55.416Z,163.13
2018-04-29T05:32:55.856Z,174.38
2018-04-29T05:33:56.291Z,180.00
2018-04-29T05:34:56.719Z,185.63
2018-04-29T05:35:57.152Z,191.25
2018-04-29T05:36:57.588Z,191.25
2018-04-29T05:37:58.027Z,185.63
2018-04-29T05:39:01.070Z,185.63
2018-04-29T05:39:58.894Z,180.00
2018-04-29T05:40:59.350Z,180.00
2018-04-29T05:41:59.759Z,180.00
2018-04-29T05:43:00.192Z,180.00
2018-04-29T05:44:00.628Z,180.00
2018-04-29T05:45:01.065Z,180.00
2018-04-29T05:46:01.500Z,180.00
2018-04-29T05:47:01.927Z,180.00
2018-04-29T05:48:02.371Z,185.63
2018-04-29T05:49:02.801Z,185.63
2018-04-29T05:50:05.071Z,191.25
2018-04-29T05:51:05.571Z,191.25
2018-04-29T05:52:04.107Z,196.88
2018-04-29T05:53:04.552Z,202.50
2018-04-29T05:54:04.982Z,208.13
2018-04-29T05:55:05.409Z,208.13
2018-04-29T05:56:05.845Z,219.38
2018-04-29T05:57:06.278Z,225.00
2018-04-29T05:58:08.575Z,236.25
2018-04-29T05:59:07.146Z,247.50
2018-04-29T06:00:07.581Z,264.38
2018-04-29T06:01:08.023Z,270.00
2018-04-29T06:02:08.455Z,270.00
2018-04-29T06:03:08.888Z,275.63
2018-04-29T06:04:09.328Z,281.25
2018-04-29T06:05:09.759Z,286.88
2018-04-29T06:06:10.196Z,281.25
2018-04-29T06:07:10.629Z,275.63
2018-04-29T06:08:11.070Z,264.38
2018-04-29T06:09:11.527Z,270.00
2018-04-29T06:10:11.938Z,275.63
2018-04-29T06:11:12.377Z,286.88
2018-04-29T06:12:12.812Z,275.63
2018-04-29T06:13:13.250Z,281.25
2018-04-29T06:14:13.708Z,264.38
2018-04-29T06:15:14.126Z,275.63
2018-04-29T06:16:14.559Z,264.38
2018-04-29T06:17:14.993Z,264.38
2018-04-29T06:18:15.434Z,275.63
2018-04-29T06:19:15.871Z,258.75
2018-04-29T06:20:16.303Z,286.88
2018-04-29T06:21:16.745Z,281.25
2018-04-29T06:22:17.186Z,281.25
2018-04-29T06:23:17.618Z,247.50
2018-04-29T06:24:18.061Z,247.50
2018-04-29T06:25:18.488Z,264.38
2018-04-29T06:26:18.997Z,275.63
2018-04-29T06:27:19.370Z,292.50
2018-04-29T06:28:19.807Z,365.63
2018-04-29T06:29:20.249Z,388.13
2018-04-29T06:30:20.680Z,450.00
2018-04-29T06:31:21.118Z,393.75
2018-04-29T06:32:21.554Z,388.13
2018-04-29T06:33:21.994Z,399.38
2018-04-29T06:34:22.437Z,438.75
2018-04-29T06:35:22.870Z,466.88
2018-04-29T06:36:23.311Z,478.13
2018-04-29T06:37:23.747Z,511.88
2018-04-29T06:38:24.188Z,601.88
2018-04-29T06:39:24.623Z,579.38
2018-04-29T06:40:25.069Z,562.50
2018-04-29T06:41:25.507Z,517.50
2018-04-29T06:42:25.950Z,596.25
2018-04-29T06:43:26.384Z,613.13
2018-04-29T06:44:26.827Z,590.63
2018-04-29T06:45:27.282Z,495.00
2018-04-29T06:46:27.709Z,466.88
2018-04-29T06:47:28.148Z,450.00
2018-04-29T06:48:28.594Z,421.88
2018-04-29T06:49:29.029Z,483.75
2018-04-29T06:50:29.472Z,562.50
2018-04-29T06:51:29.947Z,624.38
2018-04-29T06:52:30.359Z,568.13
2018-04-29T06:53:30.855Z,556.88
2018-04-29T06:54:31.244Z,630.00
2018-04-29T06:55:31.682Z,765.00
2018-04-29T06:56:32.123Z,939.38
2018-04-29T06:57:32.577Z,961.88
2018-04-29T06:58:33.039Z,939.38
2018-04-29T06:59:33.456Z,838.13
2018-04-29T07:00:33.897Z,495.00
2018-04-29T07:01:34.336Z,399.38
2018-04-29T07:02:34.781Z,371.25
2018-04-29T07:03:35.224Z,354.38
2018-04-29T07:04:35.667Z,337.50
2018-04-29T07:05:36.120Z,331.88
2018-04-29T07:06:36.554Z,331.88
2018-04-29T07:07:37.002Z,337.50
2018-04-29T07:08:37.447Z,343.13
2018-04-29T07:09:37.889Z,360.00
2018-04-29T07:10:38.338Z,348.75
2018-04-29T07:11:38.772Z,354.38
2018-04-29T07:12:39.219Z,303.75
2018-04-29T07:13:39.662Z,270.00
2018-04-29T07:14:40.104Z,247.50
2018-04-29T07:15:40.545Z,241.88
2018-04-29T07:16:40.996Z,236.25
2018-04-29T07:17:41.433Z,236.25
2018-04-29T07:18:41.878Z,241.88
2018-04-29T07:19:42.316Z,241.88
2018-04-29T07:20:42.769Z,247.50
2018-04-29T07:21:43.210Z,258.75
2018-04-29T07:22:43.649Z,270.00
2018-04-29T07:23:44.097Z,270.00
2018-04-29T07:24:44.534Z,270.00
2018-04-29T07:25:44.988Z,281.25
2018-04-29T07:26:45.422Z,292.50
2018-04-29T07:27:45.869Z,315.00
2018-04-29T07:28:46.338Z,331.88
2018-04-29T07:29:46.757Z,348.75
2018-04-29T07:30:47.194Z,371.25
2018-04-29T07:31:47.655Z,393.75
2018-04-29T07:32:48.078Z,427.50
2018-04-29T07:33:48.541Z,450.00
2018-04-29T07:34:48.975Z,483.75
2018-04-29T07:35:49.412Z,506.25
2018-04-29T07:36:49.852Z,545.63
2018-04-29T07:37:50.296Z,618.75
2018-04-29T07:38:50.742Z,630.00
2018-04-29T07:39:51.194Z,613.13
2018-04-29T07:40:51.626Z,590.63
2018-04-29T07:41:52.067Z,630.00
2018-04-29T07:42:52.516Z,658.13
2018-04-29T07:43:52.958Z,686.25
2018-04-29T07:44:53.415Z,663.75
2018-04-29T07:45:53.847Z,742.50
2018-04-29T07:46:54.290Z,1012.50
2018-04-29T07:47:54.736Z,1192.50
2018-04-29T07:48:55.182Z,894.38
2018-04-29T07:49:55.626Z,877.50
2018-04-29T07:50:56.076Z,703.13
2018-04-29T07:51:56.518Z,641.25
2018-04-29T07:52:56.966Z,590.63
2018-04-29T07:53:57.502Z,579.38
2018-04-29T07:54:57.856Z,540.00
2018-04-29T07:55:58.316Z,534.38
2018-04-29T07:56:58.763Z,540.00
2018-04-29T07:57:59.199Z,545.63
2018-04-29T07:58:59.646Z,562.50
2018-04-29T08:00:00.093Z,573.75
2018-04-29T08:01:00.539Z,573.75
2018-04-29T08:02:00.987Z,658.13
2018-04-29T08:03:01.435Z,708.75
2018-04-29T08:04:01.881Z,877.50
2018-04-29T08:05:02.327Z,798.75
2018-04-29T08:06:02.777Z,1040.63
2018-04-29T08:07:03.226Z,1344.38
2018-04-29T08:08:03.668Z,1749.38
2018-04-29T08:09:04.119Z,1198.13
2018-04-29T08:10:04.565Z,911.25
2018-04-29T08:11:05.012Z,838.13
2018-04-29T08:12:05.460Z,798.75
2018-04-29T08:13:05.909Z,748.13
2018-04-29T08:14:06.364Z,669.38
2018-04-29T08:15:06.807Z,669.38
2018-04-29T08:16:07.259Z,697.50
2018-04-29T08:17:07.772Z,708.75
2018-04-29T08:18:08.157Z,748.13
2018-04-29T08:19:08.607Z,753.75
2018-04-29T08:20:09.055Z,691.88
2018-04-29T08:21:09.494Z,652.50
2018-04-29T08:22:09.959Z,742.50
2018-04-29T08:23:10.401Z,680.63
2018-04-29T08:24:10.849Z,556.88
2018-04-29T08:25:11.296Z,511.88
2018-04-29T08:26:11.749Z,551.25
2018-04-29T08:27:12.187Z,601.88
2018-04-29T08:28:12.641Z,421.88
2018-04-29T08:29:13.089Z,399.38
2018-04-29T08:30:13.899Z,376.88
2018-04-29T08:31:13.989Z,354.38
2018-04-29T08:32:14.426Z,326.25
2018-04-29T08:33:14.880Z,286.88
2018-04-29T08:34:15.319Z,247.50
2018-04-29T08:35:15.787Z,225.00
2018-04-29T08:36:16.241Z,208.13
2018-04-29T08:37:16.662Z,196.88
2018-04-29T08:38:17.109Z,191.25
2018-04-29T08:39:17.556Z,180.00
2018-04-29T08:40:18.003Z,180.00
2018-04-29T08:41:18.447Z,174.38
2018-04-29T08:42:18.892Z,174.38
2018-04-29T08:43:19.365Z,168.75
2018-04-29T08:44:19.777Z,163.13
2018-04-29T08:45:20.227Z,174.38
2018-04-29T08:46:20.666Z,196.88
2018-04-29T08:47:21.117Z,236.25
2018-04-29T08:48:21.559Z,275.63
2018-04-29T08:49:22.068Z,281.25
2018-04-29T08:50:22.455Z,303.75
2018-04-29T08:51:22.882Z,360.00
2018-04-29T08:52:23.334Z,399.38
2018-04-29T08:53:23.767Z,455.63
2018-04-29T08:54:24.222Z,545.63
2018-04-29T08:55:24.657Z,1288.13
2018-04-29T08:56:25.113Z,1513.13
2018-04-29T08:57:25.553Z,2233.13
2018-04-29T08:58:25.997Z,1743.75
2018-04-29T08:59:26.434Z,3571.88
2018-04-29T09:00:26.879Z,1271.25
2018-04-29T09:01:27.326Z,2002.50
2018-04-29T09:02:27.773Z,894.38
2018-04-29T09:03:28.218Z,804.38
2018-04-29T09:04:28.663Z,1800.00
2018-04-29T09:05:29.114Z,2036.25
2018-04-29T09:06:29.561Z,3386.25
2018-04-29T09:07:30.017Z,2953.13
2018-04-29T09:08:30.462Z,2587.50
2018-04-29T09:09:30.913Z,3003.75
2018-04-29T09:10:31.370Z,3206.25
2018-04-29T09:11:31.837Z,3228.75
2018-04-29T09:12:32.290Z,3206.25
2018-04-29T09:13:32.739Z,3155.63
2018-04-29T09:14:33.192Z,3138.75
2018-04-29T09:15:33.649Z,3155.63
2018-04-29T09:16:34.112Z,3138.75
2018-04-29T09:17:34.637Z,3189.38
2018-04-29T09:18:35.033Z,3245.63
2018-04-29T09:19:35.509Z,3301.88
2018-04-29T09:20:35.970Z,3346.88
2018-04-29T09:21:36.433Z,3369.38
2018-04-29T09:22:36.893Z,3352.50
2018-04-29T09:23:37.355Z,3391.88
2018-04-29T09:24:37.821Z,3414.38
2018-04-29T09:25:38.286Z,3380.63
2018-04-29T09:26:38.765Z,3380.63
2018-04-29T09:27:39.228Z,3363.75
2018-04-29T09:28:39.693Z,3363.75
2018-04-29T09:29:40.163Z,3341.25
2018-04-29T09:30:40.626Z,3425.63
2018-04-29T09:31:41.121Z,3375.00
2018-04-29T09:32:41.576Z,3313.13
2018-04-29T09:33:42.040Z,3268.13
2018-04-29T09:34:42.508Z,3195.00
2018-04-29T09:35:42.987Z,3189.38
2018-04-29T09:36:43.452Z,3144.38
2018-04-29T09:37:43.925Z,3116.25
2018-04-29T09:38:44.424Z,2688.75
2018-04-29T09:39:44.890Z,2649.38
2018-04-29T09:40:45.341Z,3273.75
2018-04-29T09:41:45.804Z,3414.38
2018-04-29T09:42:46.287Z,3476.25
2018-04-29T09:43:46.759Z,3431.25
2018-04-29T09:44:47.233Z,3414.38
2018-04-29T09:45:47.692Z,3352.50
2018-04-29T09:46:48.170Z,3290.63
2018-04-29T09:47:48.643Z,3217.50
2018-04-29T09:48:49.155Z,3206.25
2018-04-29T09:49:49.590Z,3116.25
2018-04-29T09:50:50.052Z,3155.63
2018-04-29T09:51:50.532Z,3206.25
2018-04-29T09:52:50.998Z,3335.63
2018-04-29T09:53:51.473Z,3431.25
2018-04-29T09:54:51.942Z,3420.00
2018-04-29T09:55:52.421Z,3386.25
2018-04-29T09:56:52.893Z,3476.25
2018-04-29T09:57:53.442Z,3611.25
2018-04-29T09:58:53.831Z,3628.13
2018-04-29T09:59:54.326Z,3633.75
2018-04-29T10:00:54.801Z,3600.00
2018-04-29T10:01:55.266Z,3684.38
2018-04-29T10:02:55.731Z,3881.25
2018-04-29T10:03:56.203Z,3931.88
2018-04-29T10:04:56.676Z,3898.13
2018-04-29T10:05:57.146Z,3875.63
2018-04-29T10:06:57.620Z,3875.63
2018-04-29T10:07:58.090Z,3813.75
2018-04-29T10:08:58.567Z,3757.50
2018-04-29T10:09:59.038Z,3667.50
2018-04-29T10:10:59.519Z,3571.88
2018-04-29T10:11:59.985Z,2818.13
2018-04-29T10:13:00.455Z,3048.75
2018-04-29T10:14:00.932Z,3594.38
2018-04-29T10:15:01.424Z,3183.75
2018-04-29T10:16:01.881Z,2964.38
2018-04-29T10:17:02.348Z,2902.50
2018-04-29T10:18:02.824Z,2806.88
2018-04-29T10:19:03.416Z,2700.00
2018-04-29T10:20:03.779Z,2998.13
2018-04-29T10:21:04.243Z,2750.63
2018-04-29T10:22:04.711Z,2497.50
2018-04-29T10:23:05.196Z,1428.75
2018-04-29T10:24:05.656Z,742.50
2018-04-29T10:25:06.133Z,675.00
2018-04-29T10:26:06.616Z,646.88
2018-04-29T10:27:07.090Z,641.25
2018-04-29T10:28:07.555Z,646.88
2018-04-29T10:29:08.022Z,680.63
2018-04-29T10:30:08.508Z,720.00
2018-04-29T10:31:08.974Z,1147.50
2018-04-29T10:32:09.452Z,2941.88
2018-04-29T10:33:09.921Z,3847.50
2018-04-29T10:34:10.395Z,3780.00
2018-04-29T10:35:10.868Z,3791.25
2018-04-29T10:36:11.344Z,3830.63
2018-04-29T10:37:11.818Z,3830.63
2018-04-29T10:38:12.291Z,3841.88
2018-04-29T10:39:12.767Z,3915.00
2018-04-29T10:40:13.239Z,3881.25
2018-04-29T10:41:13.714Z,3796.88
2018-04-29T10:42:14.208Z,3785.63
2018-04-29T10:43:14.668Z,3746.25
2018-04-29T10:44:15.148Z,3780.00
2018-04-29T10:45:15.615Z,3780.00
2018-04-29T10:46:16.095Z,3487.50
2018-04-29T10:47:16.566Z,2868.75
2018-04-29T10:48:17.048Z,3549.38
2018-04-29T10:49:17.527Z,3729.38
2018-04-29T10:50:17.993Z,3746.25
2018-04-29T10:51:18.492Z,3701.25
2018-04-29T10:52:19.025Z,3673.13
2018-04-29T10:53:19.429Z,3645.00
2018-04-29T10:54:19.902Z,3555.00
2018-04-29T10:55:20.372Z,3510.00
2018-04-29T10:56:20.860Z,3521.25
2018-04-29T10:57:21.330Z,3521.25
2018-04-29T10:58:21.805Z,3583.13
2018-04-29T10:59:22.297Z,3583.13
2018-04-29T11:00:22.757Z,3583.13
2018-04-29T11:01:23.318Z,3566.25
2018-04-29T11:02:23.708Z,3633.75
2018-04-29T11:03:24.217Z,3723.75
2018-04-29T11:04:24.708Z,3830.63
2018-04-29T11:05:25.149Z,3853.13
2018-04-29T11:06:25.608Z,3847.50
2018-04-29T11:07:26.082Z,3802.50
2018-04-29T11:08:26.559Z,3746.25
2018-04-29T11:09:27.025Z,3723.75
2018-04-29T11:10:27.503Z,3735.00
2018-04-29T11:11:27.972Z,3780.00
2018-04-29T11:12:28.440Z,3819.38
2018-04-29T11:13:28.916Z,3780.00
2018-04-29T11:14:29.389Z,3757.50
2018-04-29T11:15:29.883Z,3763.13
2018-04-29T11:16:30.331Z,3763.13
2018-04-29T11:17:30.841Z,3639.38
2018-04-29T11:18:31.268Z,3605.63
2018-04-29T11:19:31.776Z,3532.50
2018-04-29T11:20:32.217Z,3515.63
2018-04-29T11:21:32.714Z,3195.00
2018-04-29T11:22:33.161Z,2660.63
2018-04-29T11:23:33.623Z,3166.88
2018-04-29T11:24:34.100Z,3431.25
2018-04-29T11:25:34.561Z,3414.38
2018-04-29T11:26:35.038Z,3431.25
2018-04-29T11:27:35.514Z,3408.75
2018-04-29T11:28:36.022Z,3408.75
2018-04-29T11:29:36.449Z,3459.38
2018-04-29T11:30:36.914Z,3611.25
2018-04-29T11:31:37.413Z,3718.13
2018-04-29T11:32:37.864Z,3830.63
2018-04-29T11:33:38.340Z,3757.50
2018-04-29T11:34:38.837Z,3403.13
2018-04-29T11:35:39.280Z,1507.50
2018-04-29T11:36:39.852Z,393.75
2018-04-29T11:37:40.228Z,376.88
2018-04-29T11:38:40.689Z,371.25
2018-04-29T11:39:41.158Z,365.63
2018-04-29T11:40:41.694Z,354.38
2018-04-29T11:41:42.089Z,348.75
2018-04-29T11:42:42.561Z,348.75
2018-04-29T11:43:43.024Z,348.75
2018-04-29T11:44:43.487Z,343.13
2018-04-29T11:45:43.940Z,343.13
2018-04-29T11:46:44.434Z,337.50
2018-04-29T11:47:44.854Z,337.50
2018-04-29T11:48:45.326Z,337.50
2018-04-29T11:49:45.775Z,337.50
2018-04-29T11:50:46.230Z,337.50
2018-04-29T11:51:46.698Z,337.50
2018-04-29T11:52:47.139Z,331.88
2018-04-29T11:53:47.598Z,331.88
2018-04-29T11:54:48.051Z,326.25
2018-04-29T11:55:48.496Z,326.25
2018-04-29T11:56:48.971Z,320.63
2018-04-29T11:57:49.420Z,320.63
2018-04-29T11:58:49.859Z,320.63
2018-04-29T11:59:50.311Z,315.00
2018-04-29T12:00:50.758Z,315.00
2018-04-29T12:01:51.275Z,315.00
2018-04-29T12:02:51.665Z,309.38
2018-04-29T12:03:52.113Z,309.38
2018-04-29T12:04:52.558Z,309.38
2018-04-29T12:05:53.006Z,309.38
2018-04-29T12:06:53.463Z,309.38
2018-04-29T12:07:53.903Z,309.38
2018-04-29T12:08:54.352Z,303.75
2018-04-29T12:09:54.803Z,303.75
2018-04-29T12:10:55.252Z,303.75
2018-04-29T12:11:55.697Z,298.13
2018-04-29T12:12:56.159Z,298.13
2018-04-29T12:13:56.593Z,303.75
2018-04-29T12:14:57.042Z,298.13
2018-04-29T12:15:57.495Z,292.50
2018-04-29T12:16:57.934Z,292.50
2018-04-29T12:17:58.387Z,292.50
2018-04-29T12:18:58.834Z,292.50
2018-04-29T12:19:59.281Z,292.50
2018-04-29T12:20:59.727Z,286.88
2018-04-29T12:22:00.214Z,286.88
2018-04-29T12:23:00.627Z,286.88
2018-04-29T12:24:01.069Z,286.88
2018-04-29T12:25:01.524Z,281.25
2018-04-29T12:26:01.970Z,281.25
2018-04-29T12:27:02.414Z,281.25
2018-04-29T12:28:02.867Z,275.63
2018-04-29T12:29:03.308Z,275.63
2018-04-29T12:30:03.758Z,275.63
2018-04-29T12:31:04.208Z,275.63
2018-04-29T12:32:07.372Z,270.00
2018-04-29T12:33:05.096Z,270.00
2018-04-29T12:34:05.545Z,270.00
2018-04-29T12:35:05.992Z,270.00
2018-04-29T12:36:06.452Z,270.00
2018-04-29T12:37:06.884Z,264.38
2018-04-29T12:38:07.337Z,264.38
2018-04-29T12:39:07.813Z,264.38
2018-04-29T12:40:08.238Z,264.38
2018-04-29T12:41:08.687Z,264.38
2018-04-29T12:42:09.124Z,264.38
2018-04-29T12:43:09.579Z,264.38
2018-04-29T12:44:10.015Z,258.75
2018-04-29T12:45:10.467Z,258.75
2018-04-29T12:46:10.933Z,258.75